createdAt,value
2019-04-23T12:29:20.242Z,11.60
2019-04-23T12:32:15.453Z,12.95
2019-04-23T12:34:47.585Z,12.45
2019-04-23T12:37:19.700Z,10.45
2019-04-23T12:39:56.784Z,10.43
2019-04-23T12:42:45.154Z,9.70
2019-04-23T12:44:56.665Z,8.78
2019-04-23T12:47:36.297Z,8.45
2019-04-23T12:52:37.930Z,7.90
2019-04-23T13:00:19.476Z,6.85
2019-04-23T13:02:46.738Z,7.17
2019-04-23T13:05:15.817Z,7.87
2019-04-23T13:10:35.637Z,7.92
2019-04-23T13:15:30.865Z,8.38
2019-04-23T13:20:32.366Z,8.40
2019-04-23T13:23:12.154Z,14.83
2019-04-23T13:25:55.838Z,11.00
2019-04-23T13:30:59.542Z,9.60
2019-04-23T13:38:38.392Z,8.45
2019-04-23T13:41:20.499Z,8.15
2019-04-23T13:43:40.647Z,8.23
2019-04-23T13:46:13.199Z,8.35
2019-04-23T13:48:42.116Z,7.87
2019-04-23T13:51:25.767Z,8.03
2019-04-23T13:54:15.818Z,8.10
2019-04-23T13:59:12.112Z,7.78
2019-04-23T14:01:37.934Z,7.90
2019-04-23T14:04:16.189Z,8.30
2019-04-23T14:06:43.174Z,8.58
2019-04-23T14:09:20.209Z,8.25
2019-04-23T14:11:38.730Z,8.10
2019-04-23T14:14:36.231Z,8.63
2019-04-23T14:16:59.760Z,8.20
2019-04-23T14:19:22.846Z,8.33
2019-04-23T14:22:13.730Z,8.50
2019-04-23T14:24:50.904Z,8.90
2019-04-23T14:27:18.027Z,9.60
2019-04-23T14:29:50.398Z,9.38
2019-04-23T14:32:18.675Z,8.60
2019-04-23T14:35:02.224Z,9.88
2019-04-23T14:37:17.680Z,9.75
2019-04-23T14:39:52.839Z,9.08
2019-04-23T14:42:33.733Z,8.78
2019-04-23T14:45:13.556Z,8.45
2019-04-23T14:47:40.350Z,8.58
2019-04-23T14:50:30.824Z,8.63
2019-04-23T14:52:51.807Z,8.45
2019-04-23T14:58:00.367Z,7.80
2019-04-23T15:00:29.062Z,7.47
2019-04-23T15:02:59.420Z,8.18
2019-04-23T15:05:27.675Z,8.48
2019-04-23T15:07:58.002Z,8.68
2019-04-23T15:10:32.643Z,7.45
2019-04-23T15:13:07.154Z,7.55
2019-04-23T15:15:39.115Z,7.53
2019-04-23T15:18:40.150Z,7.37
2019-04-23T15:21:19.152Z,6.90
2019-04-23T15:27:08.549Z,8.20
2019-04-23T15:28:15.009Z,6.78
2019-04-23T15:31:20.749Z,7.28
2019-04-23T15:33:55.261Z,7.25
2019-04-23T15:46:32.612Z,7.22
2019-04-23T15:49:07.659Z,6.90
2019-04-23T15:51:44.750Z,6.97
2019-04-23T15:54:13.807Z,6.62
2019-04-23T15:56:45.195Z,6.85
2019-04-23T15:59:23.996Z,6.35
2019-04-23T16:01:37.623Z,7.75
2019-04-23T16:03:51.339Z,6.33
2019-04-23T16:06:25.388Z,6.60
2019-04-23T16:09:39.897Z,6.35
2019-04-23T16:19:56.835Z,6.40
2019-04-23T16:22:19.058Z,6.47
2019-04-23T16:25:01.009Z,5.90
2019-04-23T16:27:19.568Z,6.28
2019-04-23T16:30:10.802Z,6.80
2019-04-23T16:32:42.040Z,6.22
2019-04-23T16:35:17.965Z,7.05
2019-04-23T16:38:01.637Z,6.65
2019-04-23T16:42:56.676Z,6.67
2019-04-23T16:48:06.601Z,6.70
2019-04-23T16:50:41.748Z,6.37
2019-04-23T16:53:09.848Z,6.40
2019-04-23T16:55:38.354Z,5.72
2019-04-23T16:58:21.496Z,5.80
2019-04-23T17:00:52.479Z,5.50
2019-04-23T17:03:28.207Z,6.40
2019-04-23T17:06:01.193Z,5.85
2019-04-23T17:11:00.529Z,6.65
2019-04-23T17:16:06.709Z,7.08
2019-04-23T17:18:44.271Z,6.42
2019-04-23T17:21:01.986Z,6.00
2019-04-23T17:24:02.992Z,6.25
2019-04-23T17:28:46.433Z,7.35
2019-04-23T17:31:32.407Z,6.95
2019-04-23T17:36:36.328Z,6.25
2019-04-23T17:39:07.833Z,5.90
2019-04-23T17:42:05.376Z,5.80
2019-04-23T17:44:38.639Z,6.00
2019-04-23T17:47:14.154Z,5.37
2019-04-23T17:49:52.672Z,6.35
2019-04-23T17:52:21.982Z,6.15
2019-04-23T17:57:26.416Z,5.83
2019-04-23T18:00:10.003Z,5.83
2019-04-23T18:02:49.685Z,5.47
2019-04-23T18:05:08.238Z,5.20
2019-04-23T18:07:43.917Z,5.65
2019-04-23T18:10:17.893Z,7.15
2019-04-23T18:12:45.320Z,7.40
2019-04-23T18:15:09.615Z,8.50
2019-04-23T18:17:52.828Z,6.55
2019-04-23T18:20:58.045Z,6.97
2019-04-23T18:23:14.983Z,7.20
2019-04-23T18:26:00.380Z,7.15
2019-04-23T18:28:29.687Z,7.20
2019-04-23T18:36:22.552Z,6.65
2019-04-23T18:38:59.212Z,7.78
2019-04-23T18:41:41.633Z,7.30
2019-04-23T18:46:46.572Z,7.10
2019-04-23T18:49:10.906Z,7.72
2019-04-23T18:51:57.850Z,8.45
2019-04-23T18:54:19.926Z,8.83
2019-04-23T18:57:04.530Z,9.85
2019-04-23T18:59:28.748Z,9.90
2019-04-23T19:02:05.129Z,9.75
2019-04-23T19:04:54.306Z,9.58
2019-04-23T19:07:07.250Z,9.45
2019-04-23T19:12:36.026Z,8.70
2019-04-23T19:17:46.671Z,8.73
2019-04-23T19:20:15.728Z,8.00
